Beloit, KS (67420)

12:46 AM CST on December 04, 2016 (GMT -0600)
Kansas | | Change Station

Elev 1404 ft 39.46 °N, 98.10 °W | Updated 1 second ago

Light Rain
Light Rain
33.0 °F
Feels Like 33 °F
N
0.0
Wind Variable Wind from NW
Gusts 1.0 mph

Today
High -- | Low -- °F
--% Chance of Precip.
Yesterday
High -- | Low -- °F
Precip. -- in
Pressure 30.05 in
Visibility 10.0 miles
Clouds Scattered Clouds 800 ft
Mostly Cloudy 2600 ft
Overcast 3100 ft
Windchill 33 °F
Dew Point 33 °F
Humidity 98%
Rainfall 0.00 in
Snow Depth Not available.
7:36 AM 5:08 PM
Waxing Crescent, 20% visible
SPECI KCNK 040630Z AUTO 24007KT 10SM -RA SCT008 BKN026 OVC031 02/02 A3005 RMK AO2 P0003 T00220017
Pressure 30.05 in
Visibility 10.0 miles
Clouds Scattered Clouds 800 ft
Mostly Cloudy 2600 ft
Overcast 3100 ft
Windchill 33 °F
Dew Point 33 °F
Humidity 98%
Rainfall 0.00 in
Snow Depth Not available.
7:36 AM 5:08 PM
Waxing Crescent, 20% visible
SPECI KCNK 040630Z AUTO 24007KT 10SM -RA SCT008 BKN026 OVC031 02/02 A3005 RMK AO2 P0003 T00220017

10-Day Weather Forecast

Almanac

Astronomy

Dec. 04, 2016 Rise Set
Actual Time
Civil Twilight
Nautical Twilight
Astronomical Twilight
Moon
Length of Visible Light
Length of Day
Tomorrow will be .
, % of the Moon is Illuminated

Today's Extremes

State Highs State Lows

Community

WunderPhotos

Upload Photos

1,955,588 photos uploaded!

WunderBlog® & News

Nearby

Air Quality

  Air Quality AQ Index Pollutant
Not available.

Snow Depth

Station Depth Elevation

Earthquake Activity

City Distance Mag. Time & Date
Minimum magnitude displayed is 2.5.

Coastal Water Temperatures

Place Temperature

Stations

Nearby Weather Stations

Station Location Temp. Windchill Dew Point Humidity Wind Precip. Elev Updated Type
                   

Watches & Warnings

There are currently no watches in effect.